sensor_id;sensor_type;location;lat;lon;timestamp;pressure;altitude;pressure_sealevel;temperature;humidity
20955;BME280;10636;19.390;-99.256;2022-08-21T00:00:25;78061.00;;;24.93;43.96
20955;BME280;10636;19.390;-99.256;2022-08-21T00:02:56;78061.00;;;24.93;43.82
20955;BME280;10636;19.390;-99.256;2022-08-21T00:05:25;78061.00;;;24.93;43.75
20955;BME280;10636;19.390;-99.256;2022-08-21T00:07:54;78049.28;;;24.84;44.43
20955;BME280;10636;19.390;-99.256;2022-08-21T00:10:22;78054.28;;;24.92;43.54
20955;BME280;10636;19.390;-99.256;2022-08-21T00:12:51;78051.19;;;24.82;43.54
20955;BME280;10636;19.390;-99.256;2022-08-21T00:15:24;78063.63;;;24.91;43.56
20955;BME280;10636;19.390;-99.256;2022-08-21T00:17:54;78055.19;;;24.81;43.82
20955;BME280;10636;19.390;-99.256;2022-08-21T00:20:23;78067.63;;;24.90;43.74
20955;BME280;10636;19.390;-99.256;2022-08-21T00:22:52;78078.34;;;24.90;43.34
20955;BME280;10636;19.390;-99.256;2022-08-21T00:25:21;78078.34;;;24.90;43.33
20955;BME280;10636;19.390;-99.256;2022-08-21T00:27:49;78077.66;;;24.89;43.50
20955;BME280;10636;19.390;-99.256;2022-08-21T00:30:20;78079.03;;;24.90;43.12
20955;BME280;10636;19.390;-99.256;2022-08-21T00:32:50;78083.72;;;24.90;43.37
20955;BME280;10636;19.390;-99.256;2022-08-21T00:35:21;78074.88;;;24.87;43.48
20955;BME280;10636;19.390;-99.256;2022-08-21T00:37:50;78076.94;;;24.89;43.69
20955;BME280;10636;19.390;-99.256;2022-08-21T00:40:21;78061.84;;;24.80;43.66
20955;BME280;10636;19.390;-99.256;2022-08-21T00:42:50;78083.03;;;24.89;44.17
20955;BME280;10636;19.390;-99.256;2022-08-21T00:45:21;78085.09;;;24.91;43.95
20955;BME280;10636;19.390;-99.256;2022-08-21T00:47:50;78099.19;;;24.91;43.87
20955;BME280;10636;19.390;-99.256;2022-08-21T00:50:21;78097.72;;;24.88;44.23
20955;BME280;10636;19.390;-99.256;2022-08-21T00:52:51;78111.75;;;24.87;44.14
20955;BME280;10636;19.390;-99.256;2022-08-21T00:55:20;78106.38;;;24.87;44.13
20955;BME280;10636;19.390;-99.256;2022-08-21T00:57:52;78116.41;;;24.86;43.97
20955;BME280;10636;19.390;-99.256;2022-08-21T01:00:27;78117.03;;;24.85;44.13
20955;BME280;10636;19.390;-99.256;2022-08-21T01:02:56;78117.19;;;24.89;44.16
20955;BME280;10636;19.390;-99.256;2022-08-21T01:05:25;78121.16;;;24.88;43.90
20955;BME280;10636;19.390;-99.256;2022-08-21T01:07:54;78121.09;;;24.86;44.39
20955;BME280;10636;19.390;-99.256;2022-08-21T01:10:23;78121.09;;;24.86;44.10
20955;BME280;10636;19.390;-99.256;2022-08-21T01:12:53;78125.78;;;24.85;44.31
20955;BME280;10636;19.390;-99.256;2022-08-21T01:15:27;78123.53;;;24.80;44.25
20955;BME280;10636;19.390;-99.256;2022-08-21T01:17:58;78135.81;;;24.85;43.98
20955;BME280;10636;19.390;-99.256;2022-08-21T01:20:26;78142.50;;;24.84;43.80
20955;BME280;10636;19.390;-99.256;2022-08-21T01:22:57;78143.19;;;24.84;44.28
20955;BME280;10636;19.390;-99.256;2022-08-21T01:25:25;78153.28;;;24.86;43.94
20955;BME280;10636;19.390;-99.256;2022-08-21T01:27:54;78145.84;;;24.84;44.52
20955;BME280;10636;19.390;-99.256;2022-08-21T01:30:26;78156.66;;;24.86;44.18
20955;BME280;10636;19.390;-99.256;2022-08-21T01:32:55;78163.34;;;24.85;44.77
20955;BME280;10636;19.390;-99.256;2022-08-21T01:35:24;78161.25;;;24.84;44.49
20955;BME280;10636;19.390;-99.256;2022-08-21T01:37:52;78163.84;;;24.82;44.67
20955;BME280;10636;19.390;-99.256;2022-08-21T01:40:22;78164.53;;;24.82;44.78
20955;BME280;10636;19.390;-99.256;2022-08-21T01:42:51;78159.72;;;24.78;44.94
20955;BME280;10636;19.390;-99.256;2022-08-21T01:45:19;78170.59;;;24.83;45.17
20955;BME280;10636;19.390;-99.256;2022-08-21T01:47:48;78178.56;;;24.81;45.23
20955;BME280;10636;19.390;-99.256;2022-08-21T01:50:18;78185.13;;;24.77;45.54
20955;BME280;10636;19.390;-99.256;2022-08-21T01:52:48;78186.19;;;24.70;45.19
20955;BME280;10636;19.390;-99.256;2022-08-21T01:55:16;78198.47;;;24.75;45.19
20955;BME280;10636;19.390;-99.256;2022-08-21T01:57:47;78204.53;;;24.76;45.39
20955;BME280;10636;19.390;-99.256;2022-08-21T02:00:19;78217.31;;;24.77;45.59
20955;BME280;10636;19.390;-99.256;2022-08-21T02:02:49;78226.66;;;24.76;46.11
20955;BME280;10636;19.390;-99.256;2022-08-21T02:05:17;78228.59;;;24.74;46.64
20955;BME280;10636;19.390;-99.256;2022-08-21T02:07:49;78242.50;;;24.70;46.54
20955;BME280;10636;19.390;-99.256;2022-08-21T02:10:19;78246.56;;;24.71;47.08
20955;BME280;10636;19.390;-99.256;2022-08-21T02:12:49;78248.47;;;24.69;47.99
20955;BME280;10636;19.390;-99.256;2022-08-21T02:15:18;78255.16;;;24.68;48.72
20955;BME280;10636;19.390;-99.256;2022-08-21T02:17:49;78258.97;;;24.63;48.83
20955;BME280;10636;19.390;-99.256;2022-08-21T02:20:20;78268.88;;;24.60;48.89
20955;BME280;10636;19.390;-99.256;2022-08-21T02:22:48;78267.31;;;24.55;49.53
20955;BME280;10636;19.390;-99.256;2022-08-21T02:25:17;78274.06;;;24.56;49.40
20955;BME280;10636;19.390;-99.256;2022-08-21T02:27:47;78265.75;;;24.50;49.02
20955;BME280;10636;19.390;-99.256;2022-08-21T02:30:21;78282.91;;;24.59;50.39
20955;BME280;10636;19.390;-99.256;2022-08-21T02:32:50;78290.16;;;24.56;50.47
20955;BME280;10636;19.390;-99.256;2022-08-21T02:35:20;78281.66;;;24.46;50.72
20955;BME280;10636;19.390;-99.256;2022-08-21T02:37:51;78298.63;;;24.50;50.93
20955;BME280;10636;19.390;-99.256;2022-08-21T02:40:21;78308.59;;;24.48;51.13
20955;BME280;10636;19.390;-99.256;2022-08-21T02:42:49;78308.47;;;24.46;51.45
20955;BME280;10636;19.390;-99.256;2022-08-21T02:45:20;78309.50;;;24.39;51.51
20955;BME280;10636;19.390;-99.256;2022-08-21T02:47:49;78324.47;;;24.44;51.23
20955;BME280;10636;19.390;-99.256;2022-08-21T02:50:21;78332.44;;;24.42;51.75
20955;BME280;10636;19.390;-99.256;2022-08-21T02:52:50;78336.31;;;24.39;51.85
20955;BME280;10636;19.390;-99.256;2022-08-21T02:55:19;78338.22;;;24.36;52.37
20955;BME280;10636;19.390;-99.256;2022-08-21T02:57:48;78348.03;;;24.32;52.32
20955;BME280;10636;19.390;-99.256;2022-08-21T03:00:16;78349.31;;;24.31;52.66
20955;BME280;10636;19.390;-99.256;2022-08-21T03:02:47;78348.53;;;24.28;53.04
20955;BME280;10636;19.390;-99.256;2022-08-21T03:05:16;78359.94;;;24.29;52.90
20955;BME280;10636;19.390;-99.256;2022-08-21T03:07:45;78351.81;;;24.26;52.35
20955;BME280;10636;19.390;-99.256;2022-08-21T03:10:15;78358.38;;;24.23;52.74
20955;BME280;10636;19.390;-99.256;2022-08-21T03:12:44;78365.03;;;24.22;53.26
20955;BME280;10636;19.390;-99.256;2022-08-21T03:15:17;78364.94;;;24.20;53.16
20955;BME280;10636;19.390;-99.256;2022-08-21T03:17:48;78362.16;;;24.18;53.09
20955;BME280;10636;19.390;-99.256;2022-08-21T03:20:18;78357.50;;;24.19;53.16
20955;BME280;10636;19.390;-99.256;2022-08-21T03:22:48;78360.69;;;24.15;53.15
20955;BME280;10636;19.390;-99.256;2022-08-21T03:25:17;78364.66;;;24.14;53.47
20955;BME280;10636;19.390;-99.256;2022-08-21T03:27:46;78363.19;;;24.11;53.03
20955;BME280;10636;19.390;-99.256;2022-08-21T03:30:16;78369.84;;;24.10;53.04
20955;BME280;10636;19.390;-99.256;2022-08-21T03:32:45;78370.41;;;24.09;53.26
20955;BME280;10636;19.390;-99.256;2022-08-21T03:35:15;78379.06;;;24.07;53.25
20955;BME280;10636;19.390;-99.256;2022-08-21T03:37:44;78377.69;;;24.06;53.69
20955;BME280;10636;19.390;-99.256;2022-08-21T03:40:15;78376.38;;;24.07;53.92
20955;BME280;10636;19.390;-99.256;2022-08-21T03:42:44;78382.16;;;24.02;53.10
20955;BME280;10636;19.390;-99.256;2022-08-21T03:45:14;78391.50;;;24.00;53.47
20955;BME280;10636;19.390;-99.256;2022-08-21T03:47:52;78392.66;;;23.97;54.07
20955;BME280;10636;19.390;-99.256;2022-08-21T03:50:24;78391.91;;;23.95;53.77
20955;BME280;10636;19.390;-99.256;2022-08-21T03:52:53;78397.84;;;23.93;53.90
20955;BME280;10636;19.390;-99.256;2022-08-21T03:55:22;78383.94;;;23.83;54.31
20955;BME280;10636;19.390;-99.256;2022-08-21T03:57:51;78390.31;;;23.90;53.68
20955;BME280;10636;19.390;-99.256;2022-08-21T04:00:20;78392.78;;;23.86;53.82
20955;BME280;10636;19.390;-99.256;2022-08-21T04:02:50;78396.16;;;23.86;54.10
20955;BME280;10636;19.390;-99.256;2022-08-21T04:05:19;78403.50;;;23.86;54.46
20955;BME280;10636;19.390;-99.256;2022-08-21T04:07:57;78400.63;;;23.82;54.46
20955;BME280;10636;19.390;-99.256;2022-08-21T04:10:28;78396.56;;;23.81;54.77
20955;BME280;10636;19.390;-99.256;2022-08-21T04:12:57;78388.53;;;23.81;54.57
20955;BME280;10636;19.390;-99.256;2022-08-21T04:15:26;78395.19;;;23.80;53.99
20955;BME280;10636;19.390;-99.256;2022-08-21T04:17:54;78394.97;;;23.76;54.11
20955;BME280;10636;19.390;-99.256;2022-08-21T04:20:23;78390.81;;;23.72;54.31
20955;BME280;10636;19.390;-99.256;2022-08-21T04:22:53;78392.03;;;23.69;54.84
20955;BME280;10636;19.390;-99.256;2022-08-21T04:25:23;78392.63;;;23.68;54.59
20955;BME280;10636;19.390;-99.256;2022-08-21T04:27:53;78393.31;;;23.68;54.21
20955;BME280;10636;19.390;-99.256;2022-08-21T04:30:22;78393.59;;;23.74;54.53
20955;BME280;10636;19.390;-99.256;2022-08-21T04:32:50;78390.44;;;23.78;54.01
20955;BME280;10636;19.390;-99.256;2022-08-21T04:35:21;78388.34;;;23.77;54.27
20955;BME280;10636;19.390;-99.256;2022-08-21T04:37:50;78389.81;;;23.80;54.18
20955;BME280;10636;19.390;-99.256;2022-08-21T04:40:19;78389.81;;;23.80;54.36
20955;BME280;10636;19.390;-99.256;2022-08-21T04:42:51;78384.56;;;23.82;53.88
20955;BME280;10636;19.390;-99.256;2022-08-21T04:45:23;78381.88;;;23.82;54.39
20955;BME280;10636;19.390;-99.256;2022-08-21T04:47:53;78379.00;;;23.78;53.63
20955;BME280;10636;19.390;-99.256;2022-08-21T04:50:25;78383.78;;;23.79;54.20
20955;BME280;10636;19.390;-99.256;2022-08-21T04:52:55;78392.59;;;23.82;53.93
20955;BME280;10636;19.390;-99.256;2022-08-21T04:55:24;78373.56;;;23.76;53.99
20955;BME280;10636;19.390;-99.256;2022-08-21T04:57:56;78386.53;;;23.81;54.19
20955;BME280;10636;19.390;-99.256;2022-08-21T05:00:25;78383.25;;;23.83;53.90
20955;BME280;10636;19.390;-99.256;2022-08-21T05:02:54;78371.16;;;23.82;53.68
20955;BME280;10636;19.390;-99.256;2022-08-21T05:05:25;78379.19;;;23.82;53.41
20955;BME280;10636;19.390;-99.256;2022-08-21T05:07:55;78380.50;;;23.81;54.12
20955;BME280;10636;19.390;-99.256;2022-08-21T05:10:25;78372.53;;;23.83;53.43
20955;BME280;10636;19.390;-99.256;2022-08-21T05:12:55;78382.69;;;23.84;54.00
20955;BME280;10636;19.390;-99.256;2022-08-21T05:15:24;78369.97;;;23.85;53.94
20955;BME280;10636;19.390;-99.256;2022-08-21T05:17:52;78373.97;;;23.84;53.23
20955;BME280;10636;19.390;-99.256;2022-08-21T05:20:21;78373.97;;;23.84;53.29
20955;BME280;10636;19.390;-99.256;2022-08-21T05:22:49;78365.81;;;23.82;53.83
20955;BME280;10636;19.390;-99.256;2022-08-21T05:25:18;78365.81;;;23.82;52.97
20955;BME280;10636;19.390;-99.256;2022-08-21T05:27:46;78356.31;;;23.79;53.54
20955;BME280;10636;19.390;-99.256;2022-08-21T05:30:16;78359.84;;;23.83;53.17
20955;BME280;10636;19.390;-99.256;2022-08-21T05:32:45;78357.78;;;23.82;52.87
20955;BME280;10636;19.390;-99.256;2022-08-21T05:35:13;78356.47;;;23.83;53.65
20955;BME280;10636;19.390;-99.256;2022-08-21T05:37:42;78351.03;;;23.81;53.77
20955;BME280;10636;19.390;-99.256;2022-08-21T05:40:11;78347.47;;;23.76;53.06
20955;BME280;10636;19.390;-99.256;2022-08-21T05:42:40;78353.03;;;23.80;53.62
20955;BME280;10636;19.390;-99.256;2022-08-21T05:45:09;78353.72;;;23.81;53.43
20955;BME280;10636;19.390;-99.256;2022-08-21T05:47:39;78357.09;;;23.81;52.85
20955;BME280;10636;19.390;-99.256;2022-08-21T05:50:08;78353.72;;;23.81;53.50
20955;BME280;10636;19.390;-99.256;2022-08-21T05:52:36;78347.66;;;23.80;53.01
20955;BME280;10636;19.390;-99.256;2022-08-21T05:55:05;78348.34;;;23.81;53.21
20955;BME280;10636;19.390;-99.256;2022-08-21T05:57:34;78340.31;;;23.81;52.71
20955;BME280;10636;19.390;-99.256;2022-08-21T06:00:03;78339.53;;;23.78;53.14
20955;BME280;10636;19.390;-99.256;2022-08-21T06:02:32;78341.63;;;23.80;52.71
20955;BME280;10636;19.390;-99.256;2022-08-21T06:05:02;78331.59;;;23.80;52.73
20955;BME280;10636;19.390;-99.256;2022-08-21T06:07:30;78329.41;;;23.77;52.98
20955;BME280;10636;19.390;-99.256;2022-08-21T06:09:59;78330.91;;;23.80;53.14
20955;BME280;10636;19.390;-99.256;2022-08-21T06:12:27;78328.31;;;23.82;53.04
20955;BME280;10636;19.390;-99.256;2022-08-21T06:14:56;78321.56;;;23.81;52.57
20955;BME280;10636;19.390;-99.256;2022-08-21T06:17:24;78322.94;;;23.82;52.68
20955;BME280;10636;19.390;-99.256;2022-08-21T06:19:52;78320.28;;;23.82;52.68
20955;BME280;10636;19.390;-99.256;2022-08-21T06:22:23;78312.25;;;23.82;52.62
20955;BME280;10636;19.390;-99.256;2022-08-21T06:24:51;78311.56;;;23.81;52.38
20955;BME280;10636;19.390;-99.256;2022-08-21T06:27:20;78309.47;;;23.80;52.75
20955;BME280;10636;19.390;-99.256;2022-08-21T06:29:48;78317.50;;;23.80;52.89
20955;BME280;10636;19.390;-99.256;2022-08-21T06:32:16;78303.44;;;23.79;52.95
20955;BME280;10636;19.390;-99.256;2022-08-21T06:34:45;78306.81;;;23.80;52.44
20955;BME280;10636;19.390;-99.256;2022-08-21T06:37:13;78305.50;;;23.81;52.47
20955;BME280;10636;19.390;-99.256;2022-08-21T06:39:43;78305.41;;;23.79;53.01
20955;BME280;10636;19.390;-99.256;2022-08-21T06:42:14;78305.31;;;23.77;52.94
20955;BME280;10636;19.390;-99.256;2022-08-21T06:44:42;78300.06;;;23.79;52.71
20955;BME280;10636;19.390;-99.256;2022-08-21T06:47:11;78304.13;;;23.80;52.84
20955;BME280;10636;19.390;-99.256;2022-08-21T06:49:40;78307.41;;;23.78;52.70
20955;BME280;10636;19.390;-99.256;2022-08-21T06:52:09;78301.44;;;23.80;52.46
20955;BME280;10636;19.390;-99.256;2022-08-21T06:54:38;78302.75;;;23.79;52.77
20955;BME280;10636;19.390;-99.256;2022-08-21T06:57:08;78284.91;;;23.69;52.49
20955;BME280;10636;19.390;-99.256;2022-08-21T06:59:37;78292.72;;;23.79;52.39
20955;BME280;10636;19.390;-99.256;2022-08-21T07:02:05;78295.97;;;23.78;52.35
20955;BME280;10636;19.390;-99.256;2022-08-21T07:04:34;78294.72;;;23.79;52.43
20955;BME280;10636;19.390;-99.256;2022-08-21T07:07:02;78285.25;;;23.78;52.20
20955;BME280;10636;19.390;-99.256;2022-08-21T07:09:31;78281.31;;;23.79;52.82
20955;BME280;10636;19.390;-99.256;2022-08-21T07:12:00;78277.84;;;23.76;52.89
20955;BME280;10636;19.390;-99.256;2022-08-21T07:14:30;78274.47;;;23.76;52.96
20955;BME280;10636;19.390;-99.256;2022-08-21T07:16:58;78270.41;;;23.74;52.82
20955;BME280;10636;19.390;-99.256;2022-08-21T07:19:27;78273.09;;;23.74;52.74
20955;BME280;10636;19.390;-99.256;2022-08-21T07:21:58;78263.69;;;23.73;52.91
20955;BME280;10636;19.390;-99.256;2022-08-21T07:24:28;78275.06;;;23.74;52.35
20955;BME280;10636;19.390;-99.256;2022-08-21T07:26:56;78271.72;;;23.73;52.24
20955;BME280;10636;19.390;-99.256;2022-08-21T07:29:25;78265.75;;;23.75;52.39
20955;BME280;10636;19.390;-99.256;2022-08-21T07:31:55;78249.47;;;23.71;52.32
20955;BME280;10636;19.390;-99.256;2022-08-21T07:34:23;78259.69;;;23.74;52.60
20955;BME280;10636;19.390;-99.256;2022-08-21T07:36:51;78256.91;;;23.72;52.75
20955;BME280;10636;19.390;-99.256;2022-08-21T07:39:20;78252.97;;;23.73;52.30
20955;BME280;10636;19.390;-99.256;2022-08-21T07:41:48;78239.47;;;23.71;52.67
20955;BME280;10636;19.390;-99.256;2022-08-21T07:44:17;78252.28;;;23.73;52.21
20955;BME280;10636;19.390;-99.256;2022-08-21T07:46:45;78243.53;;;23.72;52.28
20955;BME280;10636;19.390;-99.256;2022-08-21T07:49:15;78241.56;;;23.73;52.75
20955;BME280;10636;19.390;-99.256;2022-08-21T07:51:43;78234.09;;;23.71;52.16
20955;BME280;10636;19.390;-99.256;2022-08-21T07:54:12;78248.09;;;23.70;52.36
20955;BME280;10636;19.390;-99.256;2022-08-21T07:56:40;78240.06;;;23.70;52.42
20955;BME280;10636;19.390;-99.256;2022-08-21T07:59:09;78241.38;;;23.69;52.83
20955;BME280;10636;19.390;-99.256;2022-08-21T08:01:37;78242.06;;;23.69;52.60
20955;BME280;10636;19.390;-99.256;2022-08-21T08:04:06;78231.34;;;23.69;52.03
20955;BME280;10636;19.390;-99.256;2022-08-21T08:06:36;78225.31;;;23.69;52.04
20955;BME280;10636;19.390;-99.256;2022-08-21T08:09:04;78219.94;;;23.69;52.06
20955;BME280;10636;19.390;-99.256;2022-08-21T08:11:33;78223.19;;;23.67;52.35
20955;BME280;10636;19.390;-99.256;2022-08-21T08:14:01;78229.84;;;23.66;52.81
20955;BME280;10636;19.390;-99.256;2022-08-21T08:16:30;78219.75;;;23.65;52.24
20955;BME280;10636;19.390;-99.256;2022-08-21T08:18:58;78211.72;;;23.65;52.48
20955;BME280;10636;19.390;-99.256;2022-08-21T08:21:27;78216.47;;;23.66;52.88
20955;BME280;10636;19.390;-99.256;2022-08-21T08:23:57;78213.50;;;23.60;52.56
20955;BME280;10636;19.390;-99.256;2022-08-21T08:26:25;78220.44;;;23.65;52.24
20955;BME280;10636;19.390;-99.256;2022-08-21T08:28:53;78216.38;;;23.64;52.17
20955;BME280;10636;19.390;-99.256;2022-08-21T08:31:22;78215.00;;;23.63;52.04
20955;BME280;10636;19.390;-99.256;2022-08-21T08:33:50;78210.34;;;23.64;51.98
20955;BME280;10636;19.390;-99.256;2022-08-21T08:36:19;78206.28;;;23.63;52.89
20955;BME280;10636;19.390;-99.256;2022-08-21T08:38:47;78200.22;;;23.62;52.75
20955;BME280;10636;19.390;-99.256;2022-08-21T08:41:19;78206.28;;;23.63;52.17
20955;BME280;10636;19.390;-99.256;2022-08-21T08:43:52;78197.44;;;23.60;52.83
20955;BME280;10636;19.390;-99.256;2022-08-21T08:46:31;78197.53;;;23.62;52.43
20955;BME280;10636;19.390;-99.256;2022-08-21T08:49:06;78191.47;;;23.62;52.43
20955;BME280;10636;19.390;-99.256;2022-08-21T08:51:40;78187.41;;;23.61;52.87
20955;BME280;10636;19.390;-99.256;2022-08-21T08:54:14;78183.34;;;23.60;52.50
20955;BME280;10636;19.390;-99.256;2022-08-21T08:56:45;78189.41;;;23.60;52.96
20955;BME280;10636;19.390;-99.256;2022-08-21T08:59:16;78200.22;;;23.62;52.76
20955;BME280;10636;19.390;-99.256;2022-08-21T09:01:46;78198.81;;;23.61;52.64
20955;BME280;10636;19.390;-99.256;2022-08-21T09:04:20;78206.75;;;23.59;52.47
20955;BME280;10636;19.390;-99.256;2022-08-21T09:07:02;78199.34;;;23.58;53.03
20955;BME280;10636;19.390;-99.256;2022-08-21T09:09:45;78193.78;;;23.54;52.94
20955;BME280;10636;19.390;-99.256;2022-08-21T09:12:33;78204.00;;;23.57;52.69
20955;BME280;10636;19.390;-99.256;2022-08-21T09:15:11;78208.63;;;23.57;52.50
20955;BME280;10636;19.390;-99.256;2022-08-21T09:18:05;78210.03;;;23.58;52.12
20955;BME280;10636;19.390;-99.256;2022-08-21T09:20:40;78214.72;;;23.57;52.95
20955;BME280;10636;19.390;-99.256;2022-08-21T09:23:20;78213.41;;;23.58;52.54
20955;BME280;10636;19.390;-99.256;2022-08-21T09:25:59;78217.28;;;23.55;52.97
20955;BME280;10636;19.390;-99.256;2022-08-21T09:28:34;78214.00;;;23.57;52.67
20955;BME280;10636;19.390;-99.256;2022-08-21T09:31:06;78215.97;;;23.56;53.02
20955;BME280;10636;19.390;-99.256;2022-08-21T09:33:35;78218.56;;;23.54;52.75
20955;BME280;10636;19.390;-99.256;2022-08-21T09:36:03;78223.22;;;23.54;52.18
20955;BME280;10636;19.390;-99.256;2022-08-21T09:38:33;78219.94;;;23.55;52.91
20955;BME280;10636;19.390;-99.256;2022-08-21T09:41:04;78228.69;;;23.56;52.63
20955;BME280;10636;19.390;-99.256;2022-08-21T09:43:35;78236.63;;;23.54;53.00
20955;BME280;10636;19.390;-99.256;2022-08-21T09:46:08;78235.25;;;23.53;53.05
20955;BME280;10636;19.390;-99.256;2022-08-21T09:48:44;78240.59;;;23.53;53.17
20955;BME280;10636;19.390;-99.256;2022-08-21T09:51:14;78237.22;;;23.52;53.05
20955;BME280;10636;19.390;-99.256;2022-08-21T09:53:48;78242.59;;;23.52;52.49
20955;BME280;10636;19.390;-99.256;2022-08-21T09:56:20;78240.59;;;23.53;52.97
20955;BME280;10636;19.390;-99.256;2022-08-21T09:59:20;78245.25;;;23.52;53.17
20955;BME280;10636;19.390;-99.256;2022-08-21T10:01:51;78237.91;;;23.53;53.00
20955;BME280;10636;19.390;-99.256;2022-08-21T10:04:22;78230.09;;;23.43;52.64
20955;BME280;10636;19.390;-99.256;2022-08-21T10:06:51;78255.97;;;23.52;52.54
20955;BME280;10636;19.390;-99.256;2022-08-21T10:09:21;78249.91;;;23.52;52.44
20955;BME280;10636;19.390;-99.256;2022-08-21T10:11:55;78247.22;;;23.52;52.83
20955;BME280;10636;19.390;-99.256;2022-08-21T10:14:41;78257.16;;;23.49;53.14
20955;BME280;10636;19.390;-99.256;2022-08-21T10:17:17;78248.34;;;23.46;52.44
20955;BME280;10636;19.390;-99.256;2022-08-21T10:19:53;78255.09;;;23.47;53.16
20955;BME280;10636;19.390;-99.256;2022-08-21T10:22:32;78252.91;;;23.44;52.52
20955;BME280;10636;19.390;-99.256;2022-08-21T10:25:12;78251.53;;;23.43;52.59
20955;BME280;10636;19.390;-99.256;2022-08-21T10:27:51;78260.25;;;23.43;53.34
20955;BME280;10636;19.390;-99.256;2022-08-21T10:30:36;78258.25;;;23.44;53.24
20955;BME280;10636;19.390;-99.256;2022-08-21T10:33:23;78263.69;;;23.46;52.51
20955;BME280;10636;19.390;-99.256;2022-08-21T10:36:00;78256.97;;;23.45;53.16
20955;BME280;10636;19.390;-99.256;2022-08-21T10:38:55;78255.56;;;23.44;52.67
20955;BME280;10636;19.390;-99.256;2022-08-21T10:41:37;78256.97;;;23.45;52.55
20955;BME280;10636;19.390;-99.256;2022-08-21T10:44:29;78270.25;;;23.43;52.40
20955;BME280;10636;19.390;-99.256;2022-08-21T10:47:03;78257.47;;;23.41;52.66
20955;BME280;10636;19.390;-99.256;2022-08-21T10:49:44;78255.97;;;23.38;52.48
20955;BME280;10636;19.390;-99.256;2022-08-21T10:52:36;78262.84;;;23.41;52.75
20955;BME280;10636;19.390;-99.256;2022-08-21T10:55:14;78263.53;;;23.42;52.92
20955;BME280;10636;19.390;-99.256;2022-08-21T10:57:47;78267.47;;;23.41;52.54
20955;BME280;10636;19.390;-99.256;2022-08-21T11:00:20;78268.19;;;23.41;52.54
20955;BME280;10636;19.390;-99.256;2022-08-21T11:02:55;78271.44;;;23.40;52.68
20955;BME280;10636;19.390;-99.256;2022-08-21T11:05:31;78273.53;;;23.41;52.88
20955;BME280;10636;19.390;-99.256;2022-08-21T11:08:04;78277.47;;;23.40;52.68
20955;BME280;10636;19.390;-99.256;2022-08-21T11:10:39;78283.44;;;23.39;52.92
20955;BME280;10636;19.390;-99.256;2022-08-21T11:13:17;78278.69;;;23.37;53.06
20955;BME280;10636;19.390;-99.256;2022-08-21T11:15:52;78286.13;;;23.39;53.07
20955;BME280;10636;19.390;-99.256;2022-08-21T11:18:30;78284.03;;;23.37;52.62
20955;BME280;10636;19.390;-99.256;2022-08-21T11:21:08;78295.44;;;23.38;52.49
20955;BME280;10636;19.390;-99.256;2022-08-21T11:23:47;78295.44;;;23.38;52.88
20955;BME280;10636;19.390;-99.256;2022-08-21T11:26:21;78296.81;;;23.39;53.21
20955;BME280;10636;19.390;-99.256;2022-08-21T11:28:55;78300.78;;;23.38;52.96
20955;BME280;10636;19.390;-99.256;2022-08-21T11:31:34;78289.69;;;23.30;52.97
20955;BME280;10636;19.390;-99.256;2022-08-21T11:34:18;78299.41;;;23.37;52.80
20955;BME280;10636;19.390;-99.256;2022-08-21T11:36:54;78301.97;;;23.35;53.15
20955;BME280;10636;19.390;-99.256;2022-08-21T11:39:33;78300.59;;;23.34;53.40
20955;BME280;10636;19.390;-99.256;2022-08-21T11:42:11;78287.41;;;23.24;53.18
20955;BME280;10636;19.390;-99.256;2022-08-21T11:44:48;78310.00;;;23.35;52.69
20955;BME280;10636;19.390;-99.256;2022-08-21T11:47:27;78307.31;;;23.35;52.79
20955;BME280;10636;19.390;-99.256;2022-08-21T11:50:12;78310.00;;;23.35;53.16
20955;BME280;10636;19.390;-99.256;2022-08-21T11:52:43;78308.72;;;23.36;52.76
20955;BME280;10636;19.390;-99.256;2022-08-21T11:55:16;78301.81;;;23.31;53.55
20955;BME280;10636;19.390;-99.256;2022-08-21T11:57:51;78308.63;;;23.34;53.11
20955;BME280;10636;19.390;-99.256;2022-08-21T12:00:24;78316.66;;;23.34;53.47
20955;BME280;10636;19.390;-99.256;2022-08-21T12:02:56;78304.56;;;23.33;53.12
20955;BME280;10636;19.390;-99.256;2022-08-21T12:05:33;78303.88;;;23.32;52.92
20955;BME280;10636;19.390;-99.256;2022-08-21T12:08:06;78299.22;;;23.33;53.60
20955;BME280;10636;19.390;-99.256;2022-08-21T12:10:37;78302.56;;;23.33;52.84
20955;BME280;10636;19.390;-99.256;2022-08-21T12:13:09;78296.53;;;23.33;53.15
20955;BME280;10636;19.390;-99.256;2022-08-21T12:15:40;78297.84;;;23.32;52.60
20955;BME280;10636;19.390;-99.256;2022-08-21T12:18:23;78297.13;;;23.31;53.47
20955;BME280;10636;19.390;-99.256;2022-08-21T12:21:05;78300.41;;;23.30;53.20
20955;BME280;10636;19.390;-99.256;2022-08-21T12:23:43;78295.03;;;23.30;53.50
20955;BME280;10636;19.390;-99.256;2022-08-21T12:26:30;78292.97;;;23.28;53.39
20955;BME280;10636;19.390;-99.256;2022-08-21T12:29:22;78293.66;;;23.29;53.63
20955;BME280;10636;19.390;-99.256;2022-08-21T12:31:55;78301.09;;;23.30;53.20
20955;BME280;10636;19.390;-99.256;2022-08-21T12:34:30;78292.38;;;23.30;54.07
20955;BME280;10636;19.390;-99.256;2022-08-21T12:37:04;78298.94;;;23.27;53.92
20955;BME280;10636;19.390;-99.256;2022-08-21T12:39:36;78303.88;;;23.32;53.40
20955;BME280;10636;19.390;-99.256;2022-08-21T12:42:11;78298.53;;;23.32;53.10
20955;BME280;10636;19.390;-99.256;2022-08-21T12:44:46;78304.38;;;23.29;53.27
20955;BME280;10636;19.390;-99.256;2022-08-21T12:47:24;78305.75;;;23.30;54.00
20955;BME280;10636;19.390;-99.256;2022-08-21T12:50:00;78311.09;;;23.30;54.17
20955;BME280;10636;19.390;-99.256;2022-08-21T12:52:33;78307.03;;;23.29;53.49
20955;BME280;10636;19.390;-99.256;2022-08-21T12:55:03;78309.72;;;23.29;53.87
20955;BME280;10636;19.390;-99.256;2022-08-21T12:57:32;78311.09;;;23.30;54.02
20955;BME280;10636;19.390;-99.256;2022-08-21T13:00:07;78306.94;;;23.27;54.07
20955;BME280;10636;19.390;-99.256;2022-08-21T13:02:39;78310.94;;;23.26;53.90